INDIA METEOROLOGICAL DEPARTMENT, R.M.C. NEW DELHI
Dated:25 - 3 - 2017
METARS OF ALTERNATE AIRPORTS
Delhi      
VIDP 252130Z 27003KT 3200 HZ NSC 23/13 Q1011 NOSIG=
Amritsar   
VIAR 252130Z 00000KT 4000 BR SCT100 17/17 Q1012 NOSIG=
Lucknow    
VILK 252030Z 00000KT 2500 HZ NSC 20/10 Q1009=
Jaipur     
VIJP 252130Z 00000KT 3500 HZ NSC 25/08 Q1013 NOSIG=
Ahmedabad  
VAAH 252130Z 23003KT 4000 FU NSC 26/10 Q1010 NOSIG=
Mumbai     
VABB 252130Z 33003KT 3500 HZ NSC 28/23 Q1010 NOSIG=